sensor_id;sensor_type;location;lat;lon;timestamp;temperature;humidity
16666;DHT22;8446;50.998;6.250;2023-05-08T00:01:25;15.40;99.90
16666;DHT22;8446;50.998;6.250;2023-05-08T00:03:51;15.40;99.90
16666;DHT22;8446;50.998;6.250;2023-05-08T00:06:20;15.40;99.90
16666;DHT22;8446;50.998;6.250;2023-05-08T00:08:47;15.40;99.90
16666;DHT22;8446;50.998;6.250;2023-05-08T00:11:14;15.40;99.90
16666;DHT22;8446;50.998;6.250;2023-05-08T00:13:40;15.30;99.90
16666;DHT22;8446;50.998;6.250;2023-05-08T00:16:07;15.30;99.90
16666;DHT22;8446;50.998;6.250;2023-05-08T00:18:36;15.30;99.90
16666;DHT22;8446;50.998;6.250;2023-05-08T00:21:03;15.20;99.90
16666;DHT22;8446;50.998;6.250;2023-05-08T00:23:31;15.20;99.90
16666;DHT22;8446;50.998;6.250;2023-05-08T00:25:59;15.20;99.90
16666;DHT22;8446;50.998;6.250;2023-05-08T00:28:25;15.10;99.90
16666;DHT22;8446;50.998;6.250;2023-05-08T00:30:52;15.00;99.90
16666;DHT22;8446;50.998;6.250;2023-05-08T00:33:19;15.00;99.90
16666;DHT22;8446;50.998;6.250;2023-05-08T00:35:46;14.90;99.90
16666;DHT22;8446;50.998;6.250;2023-05-08T00:38:12;15.00;99.90
16666;DHT22;8446;50.998;6.250;2023-05-08T00:40:41;14.90;99.90
16666;DHT22;8446;50.998;6.250;2023-05-08T00:43:08;14.90;99.90
16666;DHT22;8446;50.998;6.250;2023-05-08T00:45:36;14.90;99.90
16666;DHT22;8446;50.998;6.250;2023-05-08T00:48:05;14.90;99.90
16666;DHT22;8446;50.998;6.250;2023-05-08T00:50:32;14.80;99.90
16666;DHT22;8446;50.998;6.250;2023-05-08T00:53:01;14.80;99.90
16666;DHT22;8446;50.998;6.250;2023-05-08T00:55:29;14.70;99.90
16666;DHT22;8446;50.998;6.250;2023-05-08T00:57:57;14.70;99.90
16666;DHT22;8446;50.998;6.250;2023-05-08T01:00:24;14.60;99.90
16666;DHT22;8446;50.998;6.250;2023-05-08T01:02:51;14.60;99.90
16666;DHT22;8446;50.998;6.250;2023-05-08T01:05:19;14.50;99.90
16666;DHT22;8446;50.998;6.250;2023-05-08T01:07:45;14.50;99.90
16666;DHT22;8446;50.998;6.250;2023-05-08T01:10:12;14.40;99.90
16666;DHT22;8446;50.998;6.250;2023-05-08T01:12:51;14.30;99.90
16666;DHT22;8446;50.998;6.250;2023-05-08T01:15:28;14.00;99.90
16666;DHT22;8446;50.998;6.250;2023-05-08T01:18:04;14.00;99.90
16666;DHT22;8446;50.998;6.250;2023-05-08T01:20:39;14.00;99.90
16666;DHT22;8446;50.998;6.250;2023-05-08T01:23:43;14.00;99.90
16666;DHT22;8446;50.998;6.250;2023-05-08T01:26:50;13.90;99.90
16666;DHT22;8446;50.998;6.250;2023-05-08T01:29:47;13.90;99.90
16666;DHT22;8446;50.998;6.250;2023-05-08T01:32:20;13.90;99.90
16666;DHT22;8446;50.998;6.250;2023-05-08T01:34:59;13.90;99.90
16666;DHT22;8446;50.998;6.250;2023-05-08T01:37:33;13.90;99.90
16666;DHT22;8446;50.998;6.250;2023-05-08T01:40:08;13.90;99.90
16666;DHT22;8446;50.998;6.250;2023-05-08T01:42:44;13.90;99.90
16666;DHT22;8446;50.998;6.250;2023-05-08T01:45:15;13.90;99.90
16666;DHT22;8446;50.998;6.250;2023-05-08T01:47:50;13.90;99.90
16666;DHT22;8446;50.998;6.250;2023-05-08T01:50:27;13.90;99.90
16666;DHT22;8446;50.998;6.250;2023-05-08T01:53:00;13.90;99.90
16666;DHT22;8446;50.998;6.250;2023-05-08T01:55:30;13.90;99.90
16666;DHT22;8446;50.998;6.250;2023-05-08T01:58:02;13.90;99.90
16666;DHT22;8446;50.998;6.250;2023-05-08T02:00:31;13.90;99.90
16666;DHT22;8446;50.998;6.250;2023-05-08T02:02:59;13.90;99.90
16666;DHT22;8446;50.998;6.250;2023-05-08T02:05:27;13.90;99.90
16666;DHT22;8446;50.998;6.250;2023-05-08T02:07:55;14.00;99.90
16666;DHT22;8446;50.998;6.250;2023-05-08T02:10:23;14.00;99.90
16666;DHT22;8446;50.998;6.250;2023-05-08T02:12:51;14.10;99.90
16666;DHT22;8446;50.998;6.250;2023-05-08T02:15:20;14.10;99.90
16666;DHT22;8446;50.998;6.250;2023-05-08T02:17:49;14.10;99.90
16666;DHT22;8446;50.998;6.250;2023-05-08T02:20:20;14.20;99.90
16666;DHT22;8446;50.998;6.250;2023-05-08T02:22:49;14.20;99.90
16666;DHT22;8446;50.998;6.250;2023-05-08T02:25:18;14.20;99.90
16666;DHT22;8446;50.998;6.250;2023-05-08T02:27:46;14.20;99.90
16666;DHT22;8446;50.998;6.250;2023-05-08T02:30:14;14.30;99.90
16666;DHT22;8446;50.998;6.250;2023-05-08T02:32:43;14.20;99.90
16666;DHT22;8446;50.998;6.250;2023-05-08T02:35:12;14.10;99.90
16666;DHT22;8446;50.998;6.250;2023-05-08T02:37:43;14.00;99.90
16666;DHT22;8446;50.998;6.250;2023-05-08T02:40:11;14.00;99.90
16666;DHT22;8446;50.998;6.250;2023-05-08T02:42:39;13.90;99.90
16666;DHT22;8446;50.998;6.250;2023-05-08T02:45:07;13.90;99.90
16666;DHT22;8446;50.998;6.250;2023-05-08T02:47:41;13.90;99.90
16666;DHT22;8446;50.998;6.250;2023-05-08T02:50:14;13.90;99.90
16666;DHT22;8446;50.998;6.250;2023-05-08T02:52:46;13.80;99.90
16666;DHT22;8446;50.998;6.250;2023-05-08T02:55:26;13.70;99.90
16666;DHT22;8446;50.998;6.250;2023-05-08T02:58:04;13.60;99.90
16666;DHT22;8446;50.998;6.250;2023-05-08T03:00:39;13.50;99.90
16666;DHT22;8446;50.998;6.250;2023-05-08T03:03:12;13.50;99.90
16666;DHT22;8446;50.998;6.250;2023-05-08T03:05:46;13.40;99.90
16666;DHT22;8446;50.998;6.250;2023-05-08T03:08:23;13.40;99.90
16666;DHT22;8446;50.998;6.250;2023-05-08T03:10:54;13.50;99.90
16666;DHT22;8446;50.998;6.250;2023-05-08T03:13:22;13.50;99.90
16666;DHT22;8446;50.998;6.250;2023-05-08T03:15:53;13.50;99.90
16666;DHT22;8446;50.998;6.250;2023-05-08T03:18:24;13.50;99.90
16666;DHT22;8446;50.998;6.250;2023-05-08T03:20:54;13.50;99.90
16666;DHT22;8446;50.998;6.250;2023-05-08T03:23:23;13.60;99.90
16666;DHT22;8446;50.998;6.250;2023-05-08T03:25:52;13.60;99.90
16666;DHT22;8446;50.998;6.250;2023-05-08T03:28:19;13.60;99.90
16666;DHT22;8446;50.998;6.250;2023-05-08T03:30:48;13.60;99.90
16666;DHT22;8446;50.998;6.250;2023-05-08T03:33:16;13.50;99.90
16666;DHT22;8446;50.998;6.250;2023-05-08T03:35:44;13.50;99.90
16666;DHT22;8446;50.998;6.250;2023-05-08T03:38:12;13.50;99.90
16666;DHT22;8446;50.998;6.250;2023-05-08T03:40:40;13.50;99.90
16666;DHT22;8446;50.998;6.250;2023-05-08T03:43:08;13.50;99.90
16666;DHT22;8446;50.998;6.250;2023-05-08T03:45:36;13.40;99.90
16666;DHT22;8446;50.998;6.250;2023-05-08T03:48:04;13.40;99.90
16666;DHT22;8446;50.998;6.250;2023-05-08T03:50:31;13.40;99.90
16666;DHT22;8446;50.998;6.250;2023-05-08T03:53:00;13.40;99.90
16666;DHT22;8446;50.998;6.250;2023-05-08T03:55:26;13.40;99.90
16666;DHT22;8446;50.998;6.250;2023-05-08T03:58:00;13.40;99.90
16666;DHT22;8446;50.998;6.250;2023-05-08T04:00:36;13.40;99.90
16666;DHT22;8446;50.998;6.250;2023-05-08T04:03:16;13.50;99.90
16666;DHT22;8446;50.998;6.250;2023-05-08T04:05:50;13.50;99.90
16666;DHT22;8446;50.998;6.250;2023-05-08T04:08:22;13.50;99.90
16666;DHT22;8446;50.998;6.250;2023-05-08T04:10:57;13.50;99.90
16666;DHT22;8446;50.998;6.250;2023-05-08T04:13:27;13.50;99.90
16666;DHT22;8446;50.998;6.250;2023-05-08T04:16:02;13.50;99.90
16666;DHT22;8446;50.998;6.250;2023-05-08T04:18:35;13.50;99.90
16666;DHT22;8446;50.998;6.250;2023-05-08T04:21:08;13.50;99.90
16666;DHT22;8446;50.998;6.250;2023-05-08T04:23:38;13.50;99.90
16666;DHT22;8446;50.998;6.250;2023-05-08T04:26:06;13.50;99.90
16666;DHT22;8446;50.998;6.250;2023-05-08T04:28:35;13.40;99.90
16666;DHT22;8446;50.998;6.250;2023-05-08T04:31:03;13.40;99.90
16666;DHT22;8446;50.998;6.250;2023-05-08T04:33:32;13.40;99.90
16666;DHT22;8446;50.998;6.250;2023-05-08T04:36:00;13.40;99.90
16666;DHT22;8446;50.998;6.250;2023-05-08T04:38:27;13.40;99.90
16666;DHT22;8446;50.998;6.250;2023-05-08T04:40:54;13.40;99.90
16666;DHT22;8446;50.998;6.250;2023-05-08T04:43:21;13.20;99.90
16666;DHT22;8446;50.998;6.250;2023-05-08T04:45:49;13.20;99.90
16666;DHT22;8446;50.998;6.250;2023-05-08T04:48:16;13.20;99.90
16666;DHT22;8446;50.998;6.250;2023-05-08T04:50:43;13.20;99.90
16666;DHT22;8446;50.998;6.250;2023-05-08T04:53:10;13.10;99.90
16666;DHT22;8446;50.998;6.250;2023-05-08T04:55:37;13.10;99.90
16666;DHT22;8446;50.998;6.250;2023-05-08T04:58:03;13.20;99.90
16666;DHT22;8446;50.998;6.250;2023-05-08T05:00:30;13.20;99.90
16666;DHT22;8446;50.998;6.250;2023-05-08T05:02:58;13.30;99.90
16666;DHT22;8446;50.998;6.250;2023-05-08T05:05:25;13.30;99.90
16666;DHT22;8446;50.998;6.250;2023-05-08T05:07:52;13.40;99.90
16666;DHT22;8446;50.998;6.250;2023-05-08T05:10:19;13.40;99.90
16666;DHT22;8446;50.998;6.250;2023-05-08T05:12:45;13.50;99.90
16666;DHT22;8446;50.998;6.250;2023-05-08T05:15:12;13.60;99.90
16666;DHT22;8446;50.998;6.250;2023-05-08T05:17:39;13.60;99.90
16666;DHT22;8446;50.998;6.250;2023-05-08T05:20:08;13.70;99.90
16666;DHT22;8446;50.998;6.250;2023-05-08T05:22:35;13.80;99.90
16666;DHT22;8446;50.998;6.250;2023-05-08T05:25:03;13.80;99.90
16666;DHT22;8446;50.998;6.250;2023-05-08T05:27:30;13.90;99.90
16666;DHT22;8446;50.998;6.250;2023-05-08T05:29:57;14.00;99.90
16666;DHT22;8446;50.998;6.250;2023-05-08T05:32:23;14.10;99.90
16666;DHT22;8446;50.998;6.250;2023-05-08T05:34:50;14.20;99.90
16666;DHT22;8446;50.998;6.250;2023-05-08T05:37:19;14.30;99.90
16666;DHT22;8446;50.998;6.250;2023-05-08T05:39:46;14.40;99.90
16666;DHT22;8446;50.998;6.250;2023-05-08T05:42:13;14.60;99.90
16666;DHT22;8446;50.998;6.250;2023-05-08T05:44:40;14.70;99.90
16666;DHT22;8446;50.998;6.250;2023-05-08T05:47:06;14.80;99.90
16666;DHT22;8446;50.998;6.250;2023-05-08T05:49:35;14.90;99.90
16666;DHT22;8446;50.998;6.250;2023-05-08T05:52:02;15.10;99.90
16666;DHT22;8446;50.998;6.250;2023-05-08T05:54:30;15.20;99.90
16666;DHT22;8446;50.998;6.250;2023-05-08T05:56:57;15.40;99.90
16666;DHT22;8446;50.998;6.250;2023-05-08T05:59:23;15.40;99.90
16666;DHT22;8446;50.998;6.250;2023-05-08T06:01:50;15.60;99.90
16666;DHT22;8446;50.998;6.250;2023-05-08T06:04:17;15.70;99.90
16666;DHT22;8446;50.998;6.250;2023-05-08T06:06:44;15.80;99.90
16666;DHT22;8446;50.998;6.250;2023-05-08T06:09:11;15.90;99.90
16666;DHT22;8446;50.998;6.250;2023-05-08T06:11:39;15.90;99.90
16666;DHT22;8446;50.998;6.250;2023-05-08T06:14:06;15.90;99.90
16666;DHT22;8446;50.998;6.250;2023-05-08T06:16:33;16.00;99.90
16666;DHT22;8446;50.998;6.250;2023-05-08T06:19:00;16.10;99.90
16666;DHT22;8446;50.998;6.250;2023-05-08T06:21:27;16.20;99.90
16666;DHT22;8446;50.998;6.250;2023-05-08T06:23:54;16.20;99.90
16666;DHT22;8446;50.998;6.250;2023-05-08T06:26:20;16.20;99.90
16666;DHT22;8446;50.998;6.250;2023-05-08T06:28:49;16.30;99.90
16666;DHT22;8446;50.998;6.250;2023-05-08T06:31:16;16.40;99.90
16666;DHT22;8446;50.998;6.250;2023-05-08T06:33:43;16.40;99.90
16666;DHT22;8446;50.998;6.250;2023-05-08T06:36:10;16.40;99.90
16666;DHT22;8446;50.998;6.250;2023-05-08T06:38:37;16.30;99.90
16666;DHT22;8446;50.998;6.250;2023-05-08T06:41:04;16.50;99.90
16666;DHT22;8446;50.998;6.250;2023-05-08T06:43:31;16.50;99.90
16666;DHT22;8446;50.998;6.250;2023-05-08T06:45:59;16.50;99.90
16666;DHT22;8446;50.998;6.250;2023-05-08T06:48:26;16.50;99.90
16666;DHT22;8446;50.998;6.250;2023-05-08T06:50:53;16.50;99.90
16666;DHT22;8446;50.998;6.250;2023-05-08T06:53:20;16.50;99.90
16666;DHT22;8446;50.998;6.250;2023-05-08T06:55:47;16.60;99.90
16666;DHT22;8446;50.998;6.250;2023-05-08T06:58:13;16.50;99.90
16666;DHT22;8446;50.998;6.250;2023-05-08T07:00:41;16.60;99.90
16666;DHT22;8446;50.998;6.250;2023-05-08T07:03:09;16.70;99.90
16666;DHT22;8446;50.998;6.250;2023-05-08T07:05:36;16.90;99.90
16666;DHT22;8446;50.998;6.250;2023-05-08T07:08:03;17.20;99.90
16666;DHT22;8446;50.998;6.250;2023-05-08T07:10:30;17.50;99.90
16666;DHT22;8446;50.998;6.250;2023-05-08T07:12:57;17.70;99.90
16666;DHT22;8446;50.998;6.250;2023-05-08T07:15:24;17.80;99.90
16666;DHT22;8446;50.998;6.250;2023-05-08T07:17:51;17.90;99.90
16666;DHT22;8446;50.998;6.250;2023-05-08T07:20:19;17.80;99.90
16666;DHT22;8446;50.998;6.250;2023-05-08T07:22:45;17.90;99.90
16666;DHT22;8446;50.998;6.250;2023-05-08T07:25:12;18.10;99.90
16666;DHT22;8446;50.998;6.250;2023-05-08T07:27:39;18.20;99.90
16666;DHT22;8446;50.998;6.250;2023-05-08T07:30:07;18.50;99.90
16666;DHT22;8446;50.998;6.250;2023-05-08T07:32:34;18.60;99.90
16666;DHT22;8446;50.998;6.250;2023-05-08T07:35:03;18.50;99.90
16666;DHT22;8446;50.998;6.250;2023-05-08T07:37:31;18.70;99.90
16666;DHT22;8446;50.998;6.250;2023-05-08T07:39:58;19.00;99.90
16666;DHT22;8446;50.998;6.250;2023-05-08T07:42:25;19.00;99.90
16666;DHT22;8446;50.998;6.250;2023-05-08T07:44:52;19.20;99.90
16666;DHT22;8446;50.998;6.250;2023-05-08T07:47:18;19.30;99.90
16666;DHT22;8446;50.998;6.250;2023-05-08T07:49:46;19.40;99.90
16666;DHT22;8446;50.998;6.250;2023-05-08T07:52:12;19.40;99.90
16666;DHT22;8446;50.998;6.250;2023-05-08T07:54:40;19.50;99.90
16666;DHT22;8446;50.998;6.250;2023-05-08T07:57:08;19.80;99.90
16666;DHT22;8446;50.998;6.250;2023-05-08T07:59:35;19.90;99.90
16666;DHT22;8446;50.998;6.250;2023-05-08T08:02:02;19.90;99.90
16666;DHT22;8446;50.998;6.250;2023-05-08T08:04:29;20.00;99.90
16666;DHT22;8446;50.998;6.250;2023-05-08T08:06:55;19.90;99.90
16666;DHT22;8446;50.998;6.250;2023-05-08T08:09:22;19.80;99.90
16666;DHT22;8446;50.998;6.250;2023-05-08T08:11:50;20.00;99.90
16666;DHT22;8446;50.998;6.250;2023-05-08T08:14:17;20.10;99.90
16666;DHT22;8446;50.998;6.250;2023-05-08T08:16:44;20.30;99.90
16666;DHT22;8446;50.998;6.250;2023-05-08T08:19:11;20.30;99.90
16666;DHT22;8446;50.998;6.250;2023-05-08T08:21:41;20.40;99.90
16666;DHT22;8446;50.998;6.250;2023-05-08T08:24:08;20.40;99.90
16666;DHT22;8446;50.998;6.250;2023-05-08T08:26:34;20.30;99.90
16666;DHT22;8446;50.998;6.250;2023-05-08T08:29:02;20.10;99.90
16666;DHT22;8446;50.998;6.250;2023-05-08T08:31:29;20.10;99.90
16666;DHT22;8446;50.998;6.250;2023-05-08T08:33:56;20.30;99.90
16666;DHT22;8446;50.998;6.250;2023-05-08T08:36:23;20.60;99.90
16666;DHT22;8446;50.998;6.250;2023-05-08T08:38:49;20.70;99.90
16666;DHT22;8446;50.998;6.250;2023-05-08T08:41:16;20.60;99.90
16666;DHT22;8446;50.998;6.250;2023-05-08T08:43:43;20.70;99.90
16666;DHT22;8446;50.998;6.250;2023-05-08T08:46:12;20.50;99.90
16666;DHT22;8446;50.998;6.250;2023-05-08T08:48:43;20.50;99.90
16666;DHT22;8446;50.998;6.250;2023-05-08T08:51:14;20.80;99.90
16666;DHT22;8446;50.998;6.250;2023-05-08T08:53:43;21.00;99.90
16666;DHT22;8446;50.998;6.250;2023-05-08T08:56:12;21.30;99.90
16666;DHT22;8446;50.998;6.250;2023-05-08T08:58:46;21.50;99.90
16666;DHT22;8446;50.998;6.250;2023-05-08T09:01:17;21.50;99.90
16666;DHT22;8446;50.998;6.250;2023-05-08T09:03:44;21.80;99.90
16666;DHT22;8446;50.998;6.250;2023-05-08T09:06:12;22.10;99.90
16666;DHT22;8446;50.998;6.250;2023-05-08T09:08:40;22.30;99.90
16666;DHT22;8446;50.998;6.250;2023-05-08T09:11:07;22.70;99.90
16666;DHT22;8446;50.998;6.250;2023-05-08T09:13:33;23.00;99.90
16666;DHT22;8446;50.998;6.250;2023-05-08T09:16:00;22.90;99.90
16666;DHT22;8446;50.998;6.250;2023-05-08T09:18:29;22.70;99.90
16666;DHT22;8446;50.998;6.250;2023-05-08T09:20:56;22.50;99.90
16666;DHT22;8446;50.998;6.250;2023-05-08T09:23:24;22.30;99.90
16666;DHT22;8446;50.998;6.250;2023-05-08T09:25:51;22.30;99.90
16666;DHT22;8446;50.998;6.250;2023-05-08T09:28:20;22.20;99.90
16666;DHT22;8446;50.998;6.250;2023-05-08T09:30:51;22.00;99.90
16666;DHT22;8446;50.998;6.250;2023-05-08T09:33:19;21.70;99.90
16666;DHT22;8446;50.998;6.250;2023-05-08T09:35:47;21.60;99.90
16666;DHT22;8446;50.998;6.250;2023-05-08T09:38:35;21.40;99.90
16666;DHT22;8446;50.998;6.250;2023-05-08T09:41:05;21.20;99.90
16666;DHT22;8446;50.998;6.250;2023-05-08T09:43:35;21.00;99.90
16666;DHT22;8446;50.998;6.250;2023-05-08T09:46:22;20.80;99.90
16666;DHT22;8446;50.998;6.250;2023-05-08T09:48:49;20.60;99.90
16666;DHT22;8446;50.998;6.250;2023-05-08T09:51:18;20.60;99.90
16666;DHT22;8446;50.998;6.250;2023-05-08T09:53:45;20.50;99.90
16666;DHT22;8446;50.998;6.250;2023-05-08T09:56:12;20.60;99.90
16666;DHT22;8446;50.998;6.250;2023-05-08T09:58:39;20.70;99.90
16666;DHT22;8446;50.998;6.250;2023-05-08T10:01:06;20.80;99.90
16666;DHT22;8446;50.998;6.250;2023-05-08T10:03:46;21.00;99.90
16666;DHT22;8446;50.998;6.250;2023-05-08T10:06:14;21.50;99.90
16666;DHT22;8446;50.998;6.250;2023-05-08T10:08:42;21.80;99.90
16666;DHT22;8446;50.998;6.250;2023-05-08T10:11:13;22.40;99.90
16666;DHT22;8446;50.998;6.250;2023-05-08T10:13:40;22.90;99.90
16666;DHT22;8446;50.998;6.250;2023-05-08T10:16:10;23.00;99.90
16666;DHT22;8446;50.998;6.250;2023-05-08T10:18:45;23.20;99.90
16666;DHT22;8446;50.998;6.250;2023-05-08T10:21:12;23.30;99.90
16666;DHT22;8446;50.998;6.250;2023-05-08T10:23:42;23.20;99.90
16666;DHT22;8446;50.998;6.250;2023-05-08T10:26:11;22.80;99.90
16666;DHT22;8446;50.998;6.250;2023-05-08T10:28:43;22.90;99.90
16666;DHT22;8446;50.998;6.250;2023-05-08T10:31:17;22.70;99.90
16666;DHT22;8446;50.998;6.250;2023-05-08T10:33:44;22.70;99.90
16666;DHT22;8446;50.998;6.250;2023-05-08T10:36:11;22.70;99.90
16666;DHT22;8446;50.998;6.250;2023-05-08T10:38:41;22.60;99.90
16666;DHT22;8446;50.998;6.250;2023-05-08T10:41:09;22.50;99.90
16666;DHT22;8446;50.998;6.250;2023-05-08T10:43:40;22.50;99.90
16666;DHT22;8446;50.998;6.250;2023-05-08T10:46:10;22.40;99.90
16666;DHT22;8446;50.998;6.250;2023-05-08T10:48:47;22.30;99.90
16666;DHT22;8446;50.998;6.250;2023-05-08T10:51:22;22.10;99.90
16666;DHT22;8446;50.998;6.250;2023-05-08T10:53:58;22.10;99.90
16666;DHT22;8446;50.998;6.250;2023-05-08T10:56:27;22.00;99.90
16666;DHT22;8446;50.998;6.250;2023-05-08T10:58:56;22.10;99.90
16666;DHT22;8446;50.998;6.250;2023-05-08T11:01:23;22.10;99.90
16666;DHT22;8446;50.998;6.250;2023-05-08T11:03:50;22.00;99.90
16666;DHT22;8446;50.998;6.250;2023-05-08T11:06:17;21.90;99.90
16666;DHT22;8446;50.998;6.250;2023-05-08T11:09:05;21.80;99.90
16666;DHT22;8446;50.998;6.250;2023-05-08T11:11:37;21.80;99.90
16666;DHT22;8446;50.998;6.250;2023-05-08T11:14:13;21.70;99.90
16666;DHT22;8446;50.998;6.250;2023-05-08T11:17:03;21.70;99.90
16666;DHT22;8446;50.998;6.250;2023-05-08T11:19:30;21.80;99.90
16666;DHT22;8446;50.998;6.250;2023-05-08T11:22:21;21.80;99.90
16666;DHT22;8446;50.998;6.250;2023-05-08T11:24:53;21.80;99.90
16666;DHT22;8446;50.998;6.250;2023-05-08T11:27:39;21.80;99.90
16666;DHT22;8446;50.998;6.250;2023-05-08T11:30:18;21.90;99.90
16666;DHT22;8446;50.998;6.250;2023-05-08T11:33:10;22.00;99.90
16666;DHT22;8446;50.998;6.250;2023-05-08T11:35:56;21.80;99.90
16666;DHT22;8446;50.998;6.250;2023-05-08T11:38:29;22.00;99.90
16666;DHT22;8446;50.998;6.250;2023-05-08T11:41:05;22.10;99.90
16666;DHT22;8446;50.998;6.250;2023-05-08T11:46:40;22.40;99.90
16666;DHT22;8446;50.998;6.250;2023-05-08T11:49:12;22.60;99.90
16666;DHT22;8446;50.998;6.250;2023-05-08T11:51:41;22.80;99.90
16666;DHT22;8446;50.998;6.250;2023-05-08T11:54:11;22.70;99.90
16666;DHT22;8446;50.998;6.250;2023-05-08T11:56:39;22.80;99.90
16666;DHT22;8446;50.998;6.250;2023-05-08T11:59:07;22.60;99.90
16666;DHT22;8446;50.998;6.250;2023-05-08T12:01:34;22.70;99.90
16666;DHT22;8446;50.998;6.250;2023-05-08T12:04:03;23.10;99.90
16666;DHT22;8446;50.998;6.250;2023-05-08T12:06:31;23.20;99.90
16666;DHT22;8446;50.998;6.250;2023-05-08T12:08:59;23.20;99.90
16666;DHT22;8446;50.998;6.250;2023-05-08T12:11:26;23.00;99.90
16666;DHT22;8446;50.998;6.250;2023-05-08T12:13:55;23.00;99.90
16666;DHT22;8446;50.998;6.250;2023-05-08T12:16:22;22.70;99.90
16666;DHT22;8446;50.998;6.250;2023-05-08T12:18:50;22.40;99.90
16666;DHT22;8446;50.998;6.250;2023-05-08T12:21:18;22.10;99.90
16666;DHT22;8446;50.998;6.250;2023-05-08T12:23:45;21.90;99.90
16666;DHT22;8446;50.998;6.250;2023-05-08T12:26:12;21.70;99.90
16666;DHT22;8446;50.998;6.250;2023-05-08T12:28:43;21.70;99.90
16666;DHT22;8446;50.998;6.250;2023-05-08T12:31:12;21.50;99.90
16666;DHT22;8446;50.998;6.250;2023-05-08T12:33:39;21.10;99.90
16666;DHT22;8446;50.998;6.250;2023-05-08T12:36:07;20.80;99.90
16666;DHT22;8446;50.998;6.250;2023-05-08T12:38:33;20.30;99.90
16666;DHT22;8446;50.998;6.250;2023-05-08T12:41:01;20.20;99.90
16666;DHT22;8446;50.998;6.250;2023-05-08T12:43:32;19.80;99.90
16666;DHT22;8446;50.998;6.250;2023-05-08T12:45:59;19.30;99.90
16666;DHT22;8446;50.998;6.250;2023-05-08T12:48:27;19.10;99.90
16666;DHT22;8446;50.998;6.250;2023-05-08T12:50:54;19.00;99.90
16666;DHT22;8446;50.998;6.250;2023-05-08T12:53:29;19.10;99.90
16666;DHT22;8446;50.998;6.250;2023-05-08T12:55:57;19.50;99.90
16666;DHT22;8446;50.998;6.250;2023-05-08T12:58:27;19.70;99.90
16666;DHT22;8446;50.998;6.250;2023-05-08T13:01:03;19.90;99.90
16666;DHT22;8446;50.998;6.250;2023-05-08T13:03:31;19.90;99.90
16666;DHT22;8446;50.998;6.250;2023-05-08T13:05:58;20.00;99.90
16666;DHT22;8446;50.998;6.250;2023-05-08T13:08:29;20.00;99.90
16666;DHT22;8446;50.998;6.250;2023-05-08T13:10:58;20.10;99.90
16666;DHT22;8446;50.998;6.250;2023-05-08T13:13:26;20.40;99.90
16666;DHT22;8446;50.998;6.250;2023-05-08T13:15:54;20.40;99.90
16666;DHT22;8446;50.998;6.250;2023-05-08T13:18:23;20.60;99.90
16666;DHT22;8446;50.998;6.250;2023-05-08T13:20:51;20.80;99.90
16666;DHT22;8446;50.998;6.250;2023-05-08T13:23:18;20.70;99.90
16666;DHT22;8446;50.998;6.250;2023-05-08T13:25:45;20.70;99.90
16666;DHT22;8446;50.998;6.250;2023-05-08T13:28:12;20.80;99.90
16666;DHT22;8446;50.998;6.250;2023-05-08T13:30:39;20.80;99.90
16666;DHT22;8446;50.998;6.250;2023-05-08T13:33:06;20.80;99.90
16666;DHT22;8446;50.998;6.250;2023-05-08T13:35:33;21.00;99.90
16666;DHT22;8446;50.998;6.250;2023-05-08T13:38:02;20.90;99.90
16666;DHT22;8446;50.998;6.250;2023-05-08T13:40:29;21.10;99.90
16666;DHT22;8446;50.998;6.250;2023-05-08T13:42:55;21.30;99.90
16666;DHT22;8446;50.998;6.250;2023-05-08T13:45:22;21.60;99.90
16666;DHT22;8446;50.998;6.250;2023-05-08T13:47:49;21.50;99.90
16666;DHT22;8446;50.998;6.250;2023-05-08T13:50:17;21.70;99.90
16666;DHT22;8446;50.998;6.250;2023-05-08T13:52:44;21.80;99.90
16666;DHT22;8446;50.998;6.250;2023-05-08T13:55:12;21.90;99.90
16666;DHT22;8446;50.998;6.250;2023-05-08T13:57:39;21.90;99.90
16666;DHT22;8446;50.998;6.250;2023-05-08T14:00:07;21.80;99.90
16666;DHT22;8446;50.998;6.250;2023-05-08T14:02:35;21.80;99.90
16666;DHT22;8446;50.998;6.250;2023-05-08T14:05:03;21.70;99.90
16666;DHT22;8446;50.998;6.250;2023-05-08T14:07:30;21.80;99.90
16666;DHT22;8446;50.998;6.250;2023-05-08T14:09:56;21.90;99.90
16666;DHT22;8446;50.998;6.250;2023-05-08T14:12:24;22.00;99.90
16666;DHT22;8446;50.998;6.250;2023-05-08T14:14:51;22.10;99.90
16666;DHT22;8446;50.998;6.250;2023-05-08T14:17:18;22.20;99.90
16666;DHT22;8446;50.998;6.250;2023-05-08T14:19:45;22.60;99.90
16666;DHT22;8446;50.998;6.250;2023-05-08T14:22:11;23.10;99.90
16666;DHT22;8446;50.998;6.250;2023-05-08T14:24:38;23.10;99.90
16666;DHT22;8446;50.998;6.250;2023-05-08T14:27:06;23.20;99.90
16666;DHT22;8446;50.998;6.250;2023-05-08T14:29:34;22.90;99.90
16666;DHT22;8446;50.998;6.250;2023-05-08T14:32:01;23.00;99.90
16666;DHT22;8446;50.998;6.250;2023-05-08T14:34:30;23.40;99.90
16666;DHT22;8446;50.998;6.250;2023-05-08T14:36:57;23.50;99.90
16666;DHT22;8446;50.998;6.250;2023-05-08T14:39:24;23.60;99.90
16666;DHT22;8446;50.998;6.250;2023-05-08T14:41:50;23.70;99.90
16666;DHT22;8446;50.998;6.250;2023-05-08T14:44:17;23.70;99.90
16666;DHT22;8446;50.998;6.250;2023-05-08T14:46:45;24.00;99.90
16666;DHT22;8446;50.998;6.250;2023-05-08T14:49:12;24.40;99.90
16666;DHT22;8446;50.998;6.250;2023-05-08T14:51:39;24.70;99.90
16666;DHT22;8446;50.998;6.250;2023-05-08T14:54:05;24.60;99.90
16666;DHT22;8446;50.998;6.250;2023-05-08T14:56:32;24.80;99.90
16666;DHT22;8446;50.998;6.250;2023-05-08T14:58:59;24.70;99.90
16666;DHT22;8446;50.998;6.250;2023-05-08T15:01:26;24.40;99.90
16666;DHT22;8446;50.998;6.250;2023-05-08T15:03:54;24.00;99.90
16666;DHT22;8446;50.998;6.250;2023-05-08T15:06:22;23.50;99.90
16666;DHT22;8446;50.998;6.250;2023-05-08T15:08:55;23.50;99.90
16666;DHT22;8446;50.998;6.250;2023-05-08T15:11:21;23.40;99.90
16666;DHT22;8446;50.998;6.250;2023-05-08T15:13:48;23.80;99.90
16666;DHT22;8446;50.998;6.250;2023-05-08T15:16:15;23.80;99.90
16666;DHT22;8446;50.998;6.250;2023-05-08T15:18:42;23.80;99.90
16666;DHT22;8446;50.998;6.250;2023-05-08T15:21:10;24.00;99.90
16666;DHT22;8446;50.998;6.250;2023-05-08T15:23:37;24.40;99.90
16666;DHT22;8446;50.998;6.250;2023-05-08T15:26:04;24.10;99.90
16666;DHT22;8446;50.998;6.250;2023-05-08T15:28:32;24.00;99.90
16666;DHT22;8446;50.998;6.250;2023-05-08T15:30:59;24.20;99.90
16666;DHT22;8446;50.998;6.250;2023-05-08T15:33:28;24.00;99.90
16666;DHT22;8446;50.998;6.250;2023-05-08T15:35:55;23.80;99.90
16666;DHT22;8446;50.998;6.250;2023-05-08T15:38:24;23.70;99.90
16666;DHT22;8446;50.998;6.250;2023-05-08T15:40:51;23.70;99.90
16666;DHT22;8446;50.998;6.250;2023-05-08T15:43:17;23.80;99.90
16666;DHT22;8446;50.998;6.250;2023-05-08T15:45:44;23.90;99.90
16666;DHT22;8446;50.998;6.250;2023-05-08T15:48:11;24.20;99.90
16666;DHT22;8446;50.998;6.250;2023-05-08T15:50:38;23.80;99.90
16666;DHT22;8446;50.998;6.250;2023-05-08T15:53:05;24.30;99.90
16666;DHT22;8446;50.998;6.250;2023-05-08T15:55:33;25.00;99.90
16666;DHT22;8446;50.998;6.250;2023-05-08T15:58:00;25.00;99.90
16666;DHT22;8446;50.998;6.250;2023-05-08T16:00:27;25.20;99.90